createdAt,value
2023-01-17T00:01:46.630Z,3.97
2023-01-17T00:04:35.703Z,1.70
2023-01-17T00:07:21.101Z,1.90
2023-01-17T00:09:53.914Z,0.20
2023-01-17T00:12:24.662Z,2.37
2023-01-17T00:14:53.426Z,1.63
2023-01-17T00:17:20.728Z,0.97
2023-01-17T00:20:06.418Z,1.63
2023-01-17T00:22:51.905Z,2.17
2023-01-17T00:25:58.157Z,2.57
2023-01-17T00:28:26.012Z,2.90
2023-01-17T00:30:53.135Z,1.60
2023-01-17T00:33:23.462Z,0.40
2023-01-17T00:35:51.687Z,0.47
2023-01-17T00:38:38.364Z,2.33
2023-01-17T00:41:10.395Z,1.23
2023-01-17T00:43:56.327Z,0.63
2023-01-17T00:46:41.601Z,0.20
2023-01-17T00:49:27.426Z,3.30
2023-01-17T00:52:13.331Z,0.20
2023-01-17T00:54:58.839Z,1.50
2023-01-17T00:57:45.927Z,2.30
2023-01-17T01:00:31.592Z,0.20
2023-01-17T01:03:16.763Z,0.47
2023-01-17T01:06:01.947Z,1.33
2023-01-17T01:08:48.505Z,0.73
2023-01-17T01:11:39.708Z,1.33
2023-01-17T01:14:28.451Z,1.57
2023-01-17T01:17:14.098Z,2.53
2023-01-17T01:19:59.640Z,0.40
2023-01-17T01:22:45.156Z,3.90
2023-01-17T01:25:30.299Z,0.70
2023-01-17T01:28:23.877Z,3.53
2023-01-17T01:31:09.445Z,3.70
2023-01-17T01:33:36.527Z,0.70
2023-01-17T01:36:03.425Z,1.67
2023-01-17T01:38:30.185Z,3.57
2023-01-17T01:40:57.223Z,3.30
2023-01-17T01:43:51.463Z,2.63
2023-01-17T01:46:35.356Z,2.07
2023-01-17T01:49:07.754Z,2.07
2023-01-17T01:51:44.893Z,2.20
2023-01-17T01:54:35.287Z,2.80
2023-01-17T01:57:05.207Z,0.77
2023-01-17T01:59:33.777Z,3.70
2023-01-17T02:02:01.349Z,3.33
2023-01-17T02:04:29.195Z,2.30
2023-01-17T02:07:02.424Z,2.17
2023-01-17T02:09:29.202Z,1.93
2023-01-17T02:11:58.638Z,1.73
2023-01-17T02:14:25.320Z,3.00
2023-01-17T02:17:03.882Z,4.47
2023-01-17T02:20:10.061Z,4.50
2023-01-17T02:23:13.648Z,1.40
2023-01-17T02:25:55.551Z,3.23
2023-01-17T02:28:27.985Z,3.30
2023-01-17T02:31:00.621Z,6.03
2023-01-17T02:33:50.041Z,3.47
2023-01-17T02:36:26.030Z,5.57
2023-01-17T02:38:57.707Z,1.93
2023-01-17T02:41:36.875Z,2.50
2023-01-17T02:44:04.290Z,4.30
2023-01-17T02:46:31.094Z,4.57
2023-01-17T02:49:01.080Z,4.00
2023-01-17T02:51:56.625Z,6.33
2023-01-17T02:54:53.865Z,4.33
2023-01-17T02:57:29.750Z,1.93
2023-01-17T03:00:10.538Z,1.83
2023-01-17T03:03:01.216Z,3.77
2023-01-17T03:05:41.632Z,1.83
2023-01-17T03:08:12.802Z,2.37
2023-01-17T03:10:40.906Z,1.67
2023-01-17T03:13:07.724Z,3.00
2023-01-17T03:15:34.486Z,4.10
2023-01-17T03:18:07.145Z,1.13
2023-01-17T03:20:37.728Z,3.27
2023-01-17T03:23:04.453Z,2.30
2023-01-17T03:25:31.429Z,3.43
2023-01-17T03:27:58.249Z,1.90
2023-01-17T03:30:25.046Z,4.70
2023-01-17T03:32:51.814Z,3.33
2023-01-17T03:35:18.896Z,2.73
2023-01-17T03:37:45.610Z,2.13
2023-01-17T03:40:12.437Z,5.53
2023-01-17T03:42:39.812Z,2.90
2023-01-17T03:45:07.046Z,3.17
2023-01-17T03:47:38.046Z,2.73
2023-01-17T03:50:08.565Z,3.93
2023-01-17T03:52:35.275Z,3.20
2023-01-17T03:55:02.687Z,6.23
2023-01-17T03:57:29.509Z,0.97
2023-01-17T03:59:56.237Z,5.63
2023-01-17T04:02:24.278Z,1.50
2023-01-17T04:04:56.958Z,5.43
2023-01-17T04:07:23.717Z,1.20
2023-01-17T04:09:50.527Z,2.70
2023-01-17T04:12:17.384Z,1.83
2023-01-17T04:14:48.267Z,3.43
2023-01-17T04:17:18.753Z,1.70
2023-01-17T04:19:46.127Z,1.53
2023-01-17T04:22:12.868Z,4.37
2023-01-17T04:24:39.681Z,3.83
2023-01-17T04:27:06.512Z,3.70
2023-01-17T04:29:33.562Z,2.80
2023-01-17T04:32:00.333Z,3.13
2023-01-17T04:34:27.252Z,4.10
2023-01-17T04:36:53.963Z,3.63
2023-01-17T04:39:20.711Z,5.17
2023-01-17T04:41:50.119Z,3.53
2023-01-17T04:44:19.441Z,3.43
2023-01-17T04:46:46.251Z,5.23
2023-01-17T04:49:12.993Z,2.30
2023-01-17T04:51:39.676Z,4.07
2023-01-17T04:54:06.429Z,1.00
2023-01-17T04:56:33.119Z,1.93
2023-01-17T04:58:59.843Z,3.60
2023-01-17T05:01:27.121Z,1.67
2023-01-17T05:03:53.919Z,2.47
2023-01-17T05:06:20.716Z,4.60
2023-01-17T05:08:47.718Z,2.50
2023-01-17T05:11:14.397Z,11.00
2023-01-17T05:13:41.089Z,3.47
2023-01-17T05:16:07.944Z,1.37
2023-01-17T05:18:34.673Z,4.10
2023-01-17T05:21:07.167Z,1.73
2023-01-17T05:23:33.917Z,5.50
2023-01-17T05:26:00.678Z,3.90
2023-01-17T05:28:27.450Z,5.80
2023-01-17T05:30:54.371Z,4.23
2023-01-17T05:33:21.663Z,6.43
2023-01-17T05:35:48.539Z,5.23
2023-01-17T05:38:15.352Z,8.07
2023-01-17T05:40:42.227Z,3.80
2023-01-17T05:43:09.231Z,8.60
2023-01-17T05:45:36.378Z,8.37
2023-01-17T05:48:03.849Z,8.03
2023-01-17T05:50:34.132Z,5.53
2023-01-17T05:53:11.969Z,6.87
2023-01-17T05:55:39.415Z,7.67
2023-01-17T05:58:07.299Z,7.47
2023-01-17T06:00:34.664Z,11.73
2023-01-17T06:03:01.894Z,11.47
2023-01-17T06:05:29.358Z,14.33
2023-01-17T06:07:56.626Z,9.93
2023-01-17T06:10:24.372Z,12.10
2023-01-17T06:13:00.443Z,11.00
2023-01-17T06:15:27.289Z,10.93
2023-01-17T06:17:57.116Z,11.47
2023-01-17T06:20:24.487Z,7.47
2023-01-17T06:22:59.501Z,10.10
2023-01-17T06:25:26.598Z,11.47
2023-01-17T06:27:55.312Z,12.77
2023-01-17T06:30:22.194Z,10.57
2023-01-17T06:32:53.931Z,10.10
2023-01-17T06:35:24.212Z,11.00
2023-01-17T06:37:52.680Z,12.63
2023-01-17T06:40:28.832Z,13.10
2023-01-17T06:43:00.958Z,10.97
2023-01-17T06:45:30.922Z,9.90
2023-01-17T06:48:00.544Z,9.30
2023-01-17T06:50:27.808Z,8.90
2023-01-17T06:53:02.970Z,9.63
2023-01-17T06:55:33.547Z,9.63
2023-01-17T06:58:00.658Z,17.20
2023-01-17T07:00:28.020Z,17.03
2023-01-17T07:02:55.424Z,12.93
2023-01-17T07:05:22.385Z,15.30
2023-01-17T07:07:51.064Z,16.80
2023-01-17T07:10:18.047Z,13.53
2023-01-17T07:12:44.875Z,14.20
2023-01-17T07:15:12.431Z,14.73
2023-01-17T07:17:39.282Z,16.57
2023-01-17T07:20:07.222Z,17.07
2023-01-17T07:22:34.211Z,16.50
2023-01-17T07:25:01.021Z,17.53
2023-01-17T07:27:31.226Z,16.60
2023-01-17T07:30:00.314Z,17.13
2023-01-17T07:32:27.371Z,15.20
2023-01-17T07:34:56.846Z,13.30
2023-01-17T07:37:23.987Z,22.50
2023-01-17T07:39:50.808Z,19.13
2023-01-17T07:42:17.600Z,20.60
2023-01-17T07:44:45.325Z,16.50
2023-01-17T07:47:12.259Z,16.17
2023-01-17T07:49:39.100Z,15.70
2023-01-17T07:52:09.405Z,15.30
2023-01-17T07:54:36.107Z,15.67
2023-01-17T07:57:02.968Z,15.37
2023-01-17T07:59:29.740Z,14.07
2023-01-17T08:01:56.582Z,19.03
2023-01-17T08:04:26.594Z,14.83
2023-01-17T08:06:54.990Z,15.47
2023-01-17T08:09:21.980Z,15.90
2023-01-17T08:11:51.952Z,12.50
2023-01-17T08:14:18.783Z,19.20
2023-01-17T08:16:45.657Z,16.47
2023-01-17T08:19:12.437Z,14.97
2023-01-17T08:21:39.461Z,18.93
2023-01-17T08:24:06.452Z,22.30
2023-01-17T08:26:33.272Z,16.03
2023-01-17T08:29:01.163Z,16.03
2023-01-17T08:31:30.200Z,22.97
2023-01-17T08:33:57.486Z,17.33
2023-01-17T08:36:29.230Z,15.53
2023-01-17T08:38:57.859Z,16.67
2023-01-17T08:41:27.197Z,20.93
2023-01-17T08:43:54.086Z,17.00
2023-01-17T08:46:20.986Z,16.30
2023-01-17T08:48:55.886Z,17.20
2023-01-17T08:51:26.270Z,19.30
2023-01-17T08:53:56.919Z,13.03
2023-01-17T08:56:24.021Z,18.97
2023-01-17T08:58:50.838Z,20.00
2023-01-17T09:01:19.995Z,17.27
2023-01-17T09:03:49.517Z,19.10
2023-01-17T09:06:17.349Z,17.20
2023-01-17T09:08:47.927Z,13.00
2023-01-17T09:11:16.839Z,18.77
2023-01-17T09:13:44.562Z,15.60
2023-01-17T09:16:11.634Z,12.73
2023-01-17T09:18:38.882Z,13.17
2023-01-17T09:21:16.707Z,15.63
2023-01-17T09:23:45.194Z,13.73
2023-01-17T09:26:19.968Z,13.07
2023-01-17T09:28:49.087Z,15.27
2023-01-17T09:31:17.487Z,11.40
2023-01-17T09:33:48.651Z,11.07
2023-01-17T09:36:15.611Z,8.73
2023-01-17T09:38:42.824Z,13.90
2023-01-17T09:41:24.982Z,13.30
2023-01-17T09:44:21.084Z,14.77
2023-01-17T09:46:49.555Z,10.67
2023-01-17T09:49:19.067Z,10.00
2023-01-17T09:51:46.283Z,12.07
2023-01-17T09:54:32.507Z,13.13
2023-01-17T09:57:31.356Z,13.23
2023-01-17T10:00:26.147Z,10.57
2023-01-17T10:03:14.765Z,13.53
2023-01-17T10:05:57.814Z,13.53
2023-01-17T10:08:30.777Z,14.93
2023-01-17T10:11:00.203Z,12.60
2023-01-17T10:13:46.858Z,12.07
2023-01-17T10:16:21.802Z,12.07
2023-01-17T10:19:00.675Z,11.20
2023-01-17T10:21:42.529Z,14.63
2023-01-17T10:24:48.482Z,10.23
2023-01-17T10:27:50.563Z,10.00
2023-01-17T10:30:23.139Z,9.87
2023-01-17T10:32:50.440Z,9.37
2023-01-17T10:35:28.443Z,10.10
2023-01-17T10:38:00.881Z,11.40
2023-01-17T10:40:42.732Z,13.60
2023-01-17T10:43:44.264Z,14.10
2023-01-17T10:46:42.990Z,11.97
2023-01-17T10:49:17.997Z,11.77
2023-01-17T10:52:00.335Z,9.63
2023-01-17T10:54:45.141Z,9.90
2023-01-17T10:57:27.712Z,9.03
2023-01-17T10:59:59.847Z,11.23
2023-01-17T11:02:39.875Z,9.33
2023-01-17T11:05:21.585Z,9.87
2023-01-17T11:07:59.553Z,8.33
2023-01-17T11:10:49.877Z,10.87
2023-01-17T11:13:28.288Z,10.83
2023-01-17T11:15:58.818Z,13.13
2023-01-17T11:18:31.946Z,7.77
2023-01-17T11:21:18.696Z,9.80
2023-01-17T11:23:48.995Z,9.17
2023-01-17T11:26:31.195Z,10.70
2023-01-17T11:29:37.595Z,7.90
2023-01-17T11:32:22.679Z,9.50
2023-01-17T11:35:21.873Z,9.10
2023-01-17T11:37:57.646Z,7.37
2023-01-17T11:40:46.662Z,9.53
2023-01-17T11:43:18.722Z,7.67
2023-01-17T11:45:50.469Z,6.07
2023-01-17T11:48:17.815Z,7.70
2023-01-17T11:50:56.603Z,10.57
2023-01-17T11:53:34.560Z,8.40
2023-01-17T11:56:11.987Z,9.50
2023-01-17T11:58:47.457Z,8.03
2023-01-17T12:01:32.939Z,6.43
2023-01-17T12:04:22.905Z,7.27
2023-01-17T12:07:10.223Z,6.33
2023-01-17T12:10:00.658Z,12.07
2023-01-17T12:13:04.743Z,6.73
2023-01-17T12:15:40.042Z,4.73
2023-01-17T12:18:33.762Z,6.20
2023-01-17T12:21:25.230Z,5.63
2023-01-17T12:24:18.702Z,5.83
2023-01-17T12:27:14.820Z,5.43
2023-01-17T12:29:47.418Z,5.97
2023-01-17T12:32:48.171Z,5.07
2023-01-17T12:35:38.671Z,4.23
2023-01-17T12:38:18.046Z,2.97
2023-01-17T12:41:20.857Z,2.57
2023-01-17T12:43:54.250Z,2.30
2023-01-17T12:46:40.921Z,3.37
2023-01-17T12:49:37.340Z,3.00
2023-01-17T12:52:29.396Z,2.77
2023-01-17T12:55:02.825Z,7.67
2023-01-17T12:57:40.214Z,4.10
2023-01-17T13:00:23.155Z,1.27
2023-01-17T13:03:10.147Z,0.73
2023-01-17T13:05:41.011Z,3.53
2023-01-17T13:08:19.904Z,3.30
2023-01-17T13:11:14.997Z,3.13
2023-01-17T13:13:43.387Z,3.33
2023-01-17T13:16:21.289Z,3.87
2023-01-17T13:18:52.368Z,1.33
2023-01-17T13:21:32.147Z,2.43
2023-01-17T13:24:02.183Z,1.53
2023-01-17T13:26:53.289Z,2.67
2023-01-17T13:29:56.987Z,1.67
2023-01-17T13:32:49.741Z,2.10
2023-01-17T13:35:47.187Z,1.33
2023-01-17T13:38:43.879Z,1.80
2023-01-17T13:41:31.723Z,1.07
2023-01-17T13:44:19.092Z,1.30
2023-01-17T13:47:04.580Z,1.93
2023-01-17T13:49:34.518Z,1.60
2023-01-17T13:52:24.340Z,2.03
2023-01-17T13:54:56.769Z,4.67
2023-01-17T13:57:23.557Z,1.57
2023-01-17T13:59:50.812Z,2.73
2023-01-17T14:02:32.608Z,3.80
2023-01-17T14:05:31.824Z,3.07
2023-01-17T14:08:18.811Z,3.03
2023-01-17T14:10:49.797Z,2.60
2023-01-17T14:13:37.357Z,2.17
2023-01-17T14:16:28.937Z,2.03
2023-01-17T14:18:58.460Z,2.80
2023-01-17T14:21:27.178Z,1.93
2023-01-17T14:24:13.152Z,3.27
2023-01-17T14:26:46.613Z,2.33
2023-01-17T14:29:50.942Z,2.23
2023-01-17T14:32:24.416Z,2.20
2023-01-17T14:34:54.025Z,2.43
2023-01-17T14:37:40.961Z,2.33
2023-01-17T14:40:16.572Z,1.73
2023-01-17T14:42:44.748Z,1.23
2023-01-17T14:45:16.067Z,3.60
2023-01-17T14:47:45.171Z,4.33
2023-01-17T14:50:17.860Z,2.30
2023-01-17T14:52:50.603Z,3.50
2023-01-17T14:55:19.903Z,4.37
2023-01-17T14:57:57.090Z,3.40
2023-01-17T15:00:30.692Z,1.53
2023-01-17T15:02:59.484Z,1.10
2023-01-17T15:05:28.778Z,2.63
2023-01-17T15:07:57.579Z,1.60
2023-01-17T15:10:33.933Z,2.53
2023-01-17T15:13:09.348Z,3.97
2023-01-17T15:15:39.778Z,1.43
2023-01-17T15:18:19.405Z,1.93
2023-01-17T15:21:08.772Z,2.30
2023-01-17T15:23:44.076Z,2.37
2023-01-17T15:26:14.916Z,2.93
2023-01-17T15:28:44.781Z,2.23
2023-01-17T15:31:16.247Z,2.13
2023-01-17T15:33:50.227Z,2.87
2023-01-17T15:36:33.123Z,5.13
2023-01-17T15:39:27.041Z,2.03
2023-01-17T15:41:55.487Z,3.13
2023-01-17T15:44:33.390Z,2.90
2023-01-17T15:47:38.528Z,1.60
2023-01-17T15:50:30.541Z,2.10
2023-01-17T15:53:08.636Z,3.20
2023-01-17T15:55:39.732Z,3.20
2023-01-17T15:58:23.762Z,5.27
2023-01-17T16:00:50.636Z,7.10
2023-01-17T16:03:20.215Z,4.13
2023-01-17T16:05:48.581Z,3.70
2023-01-17T16:08:16.180Z,3.67
2023-01-17T16:10:44.316Z,2.03
2023-01-17T16:13:13.649Z,3.23
2023-01-17T16:15:41.475Z,4.40
2023-01-17T16:18:20.741Z,1.93
2023-01-17T16:21:00.853Z,5.30
2023-01-17T16:23:28.592Z,3.27
2023-01-17T16:25:55.393Z,2.27
2023-01-17T16:28:22.187Z,2.43
2023-01-17T16:30:49.257Z,3.77
2023-01-17T16:33:16.289Z,8.03
2023-01-17T16:35:43.055Z,4.63
2023-01-17T16:38:16.401Z,4.07
2023-01-17T16:40:44.972Z,8.90
2023-01-17T16:43:13.285Z,4.67
2023-01-17T16:45:42.164Z,5.67
2023-01-17T16:48:11.398Z,5.73
2023-01-17T16:50:41.915Z,6.43
2023-01-17T16:53:09.042Z,6.63
2023-01-17T16:55:35.761Z,6.20
2023-01-17T16:58:02.503Z,5.30
2023-01-17T17:00:29.324Z,5.37
2023-01-17T17:02:56.112Z,5.13
2023-01-17T17:05:22.998Z,10.43
2023-01-17T17:07:52.001Z,5.00
2023-01-17T17:10:21.180Z,6.63
2023-01-17T17:12:50.904Z,7.93
2023-01-17T17:15:17.993Z,6.47
2023-01-17T17:17:44.824Z,6.60
2023-01-17T17:20:14.186Z,7.63
2023-01-17T17:22:45.159Z,8.37
2023-01-17T17:25:13.510Z,8.70
2023-01-17T17:27:40.350Z,10.67
2023-01-17T17:30:08.107Z,8.63
2023-01-17T17:32:34.916Z,7.60
2023-01-17T17:35:01.749Z,6.70
2023-01-17T17:37:29.181Z,8.30
2023-01-17T17:39:57.154Z,7.33
2023-01-17T17:42:24.184Z,10.17
2023-01-17T17:44:53.687Z,9.17
2023-01-17T17:47:20.448Z,8.67
2023-01-17T17:49:47.413Z,7.67
2023-01-17T17:52:14.231Z,7.43
2023-01-17T17:54:43.770Z,9.70
2023-01-17T17:57:10.584Z,10.83
2023-01-17T17:59:37.318Z,10.63
2023-01-17T18:02:06.661Z,11.47
2023-01-17T18:04:33.458Z,9.57
2023-01-17T18:07:03.345Z,10.27
2023-01-17T18:09:30.387Z,11.40
2023-01-17T18:11:57.751Z,9.60
2023-01-17T18:14:24.523Z,10.27
2023-01-17T18:16:52.168Z,10.80
2023-01-17T18:19:21.983Z,9.87
2023-01-17T18:22:00.052Z,9.33
2023-01-17T18:24:27.578Z,10.70
2023-01-17T18:26:57.094Z,13.53
2023-01-17T18:29:25.849Z,11.87
2023-01-17T18:31:53.899Z,13.23
2023-01-17T18:34:28.564Z,14.10
2023-01-17T18:36:55.556Z,10.83
2023-01-17T18:39:26.279Z,13.77
2023-01-17T18:41:53.957Z,15.33
2023-01-17T18:44:22.197Z,12.13
2023-01-17T18:46:53.147Z,11.53
2023-01-17T18:49:20.710Z,11.87
2023-01-17T18:51:50.989Z,9.83
2023-01-17T18:54:19.476Z,12.33
2023-01-17T18:56:46.402Z,9.83
2023-01-17T18:59:14.192Z,15.73
2023-01-17T19:01:44.563Z,11.53
2023-01-17T19:04:13.252Z,14.60
2023-01-17T19:06:42.651Z,10.93
2023-01-17T19:09:10.505Z,13.53
2023-01-17T19:11:41.044Z,12.77
2023-01-17T19:14:07.944Z,12.30
2023-01-17T19:16:39.587Z,10.43
2023-01-17T19:19:09.652Z,13.27
2023-01-17T19:21:36.755Z,15.03
2023-01-17T19:24:04.129Z,15.33
2023-01-17T19:26:31.023Z,10.10
2023-01-17T19:28:59.058Z,11.43
2023-01-17T19:31:30.766Z,9.93
2023-01-17T19:33:59.425Z,12.70
2023-01-17T19:36:34.436Z,15.50
2023-01-17T19:39:05.231Z,12.60
2023-01-17T19:41:36.866Z,15.10
2023-01-17T19:44:08.363Z,11.77
2023-01-17T19:46:37.446Z,14.47
2023-01-17T19:49:08.208Z,12.03
2023-01-17T19:51:35.923Z,17.03
2023-01-17T19:54:05.288Z,14.33
2023-01-17T19:56:35.185Z,14.93
2023-01-17T19:59:02.372Z,13.07
2023-01-17T20:01:36.363Z,15.10
2023-01-17T20:04:04.190Z,16.53
2023-01-17T20:06:33.949Z,13.63
2023-01-17T20:09:01.245Z,15.83
2023-01-17T20:11:29.103Z,14.97
2023-01-17T20:13:58.089Z,14.83
2023-01-17T20:16:29.358Z,12.40
2023-01-17T20:18:57.580Z,14.63
2023-01-17T20:21:26.939Z,13.13
2023-01-17T20:23:54.740Z,10.93
2023-01-17T20:26:24.998Z,11.50
2023-01-17T20:28:53.405Z,13.20
2023-01-17T20:31:25.355Z,16.70
2023-01-17T20:33:54.455Z,10.77
2023-01-17T20:36:23.565Z,13.43
2023-01-17T20:38:50.482Z,12.03
2023-01-17T20:41:23.184Z,12.20
2023-01-17T20:43:55.515Z,17.27
2023-01-17T20:46:24.951Z,16.80
2023-01-17T20:48:53.986Z,15.17
2023-01-17T20:51:22.064Z,16.43
2023-01-17T20:53:56.491Z,10.83
2023-01-17T20:56:24.317Z,11.40
2023-01-17T20:58:52.115Z,11.80
2023-01-17T21:01:22.516Z,11.63
2023-01-17T21:03:51.779Z,13.23
2023-01-17T21:06:19.679Z,9.13
2023-01-17T21:08:48.024Z,11.97
2023-01-17T21:11:19.031Z,15.17
2023-01-17T21:13:47.335Z,13.03
2023-01-17T21:16:17.450Z,14.27
2023-01-17T21:18:47.604Z,12.93
2023-01-17T21:21:17.820Z,12.13
2023-01-17T21:23:45.611Z,11.37
2023-01-17T21:26:14.898Z,14.83
2023-01-17T21:28:44.308Z,18.27
2023-01-17T21:34:23.114Z,11.47
2023-01-17T21:36:53.919Z,11.93
2023-01-17T21:39:20.765Z,9.67
2023-01-17T21:41:51.128Z,10.43
2023-01-17T21:44:22.970Z,8.93
2023-01-17T21:46:56.709Z,7.80
2023-01-17T21:49:23.947Z,9.27
2023-01-17T21:51:53.565Z,14.07
2023-01-17T21:54:46.344Z,10.73
2023-01-17T21:57:34.059Z,8.27
2023-01-17T22:00:01.025Z,11.23
2023-01-17T22:02:27.794Z,12.37
2023-01-17T22:04:54.778Z,11.33
2023-01-17T22:07:21.766Z,11.13
2023-01-17T22:09:48.685Z,10.77
2023-01-17T22:12:15.497Z,11.37
2023-01-17T22:14:42.338Z,12.47
2023-01-17T22:17:09.794Z,13.33
2023-01-17T22:19:36.679Z,12.27
2023-01-17T22:22:03.989Z,9.63
2023-01-17T22:24:33.740Z,12.23
2023-01-17T22:27:00.607Z,11.57
2023-01-17T22:29:27.717Z,15.50
2023-01-17T22:31:54.457Z,13.17
2023-01-17T22:34:22.765Z,10.43
2023-01-17T22:36:49.756Z,10.17
2023-01-17T22:39:16.524Z,10.33
2023-01-17T22:41:43.279Z,12.97
2023-01-17T22:44:10.133Z,12.23
2023-01-17T22:46:38.486Z,11.90
2023-01-17T22:49:07.628Z,9.23
2023-01-17T22:51:35.350Z,13.73
2023-01-17T22:54:02.175Z,13.67
2023-01-17T22:56:31.550Z,13.83
2023-01-17T22:59:00.717Z,10.60
2023-01-17T23:01:30.249Z,12.53
2023-01-17T23:03:59.598Z,12.47
2023-01-17T23:06:37.386Z,12.70
2023-01-17T23:09:13.425Z,16.03
2023-01-17T23:11:47.088Z,13.10
2023-01-17T23:14:19.415Z,19.17
2023-01-17T23:17:21.199Z,20.23
2023-01-17T23:19:56.618Z,19.37
2023-01-17T23:22:26.871Z,12.83
2023-01-17T23:25:06.328Z,17.70
2023-01-17T23:28:03.471Z,19.13
2023-01-17T23:30:38.988Z,16.33
2023-01-17T23:33:14.998Z,17.33
2023-01-17T23:35:43.692Z,18.40
2023-01-17T23:38:33.921Z,18.70
2023-01-17T23:41:22.232Z,14.83
2023-01-17T23:43:56.625Z,16.40
2023-01-17T23:46:25.285Z,16.77
2023-01-17T23:48:52.114Z,18.13
2023-01-17T23:51:21.670Z,19.27
2023-01-17T23:53:48.924Z,19.87
2023-01-17T23:56:20.883Z,18.53
2023-01-17T23:58:48.216Z,13.13
